sensor_id;sensor_type;location;lat;lon;timestamp;P1;durP1;ratioP1;P2;durP2;ratioP2
19127;SDS011;9696;53.686;10.094;2022-07-23T00:02:00;5.22;;;0.93;;
19127;SDS011;9696;53.686;10.094;2022-07-23T00:04:29;1.88;;;0.73;;
19127;SDS011;9696;53.686;10.094;2022-07-23T00:06:58;3.60;;;1.08;;
19127;SDS011;9696;53.686;10.094;2022-07-23T00:09:26;2.00;;;0.70;;
19127;SDS011;9696;53.686;10.094;2022-07-23T00:11:57;1.92;;;0.65;;
19127;SDS011;9696;53.686;10.094;2022-07-23T00:14:25;2.65;;;1.17;;
19127;SDS011;9696;53.686;10.094;2022-07-23T00:16:54;1.88;;;0.88;;
19127;SDS011;9696;53.686;10.094;2022-07-23T00:19:24;4.30;;;0.98;;
19127;SDS011;9696;53.686;10.094;2022-07-23T00:21:52;2.10;;;0.80;;
19127;SDS011;9696;53.686;10.094;2022-07-23T00:24:21;4.32;;;0.90;;
19127;SDS011;9696;53.686;10.094;2022-07-23T00:26:49;1.63;;;0.90;;
19127;SDS011;9696;53.686;10.094;2022-07-23T00:29:17;1.50;;;0.80;;
19127;SDS011;9696;53.686;10.094;2022-07-23T00:31:46;1.42;;;0.70;;
19127;SDS011;9696;53.686;10.094;2022-07-23T00:34:14;1.92;;;0.70;;
19127;SDS011;9696;53.686;10.094;2022-07-23T00:36:44;2.00;;;0.80;;
19127;SDS011;9696;53.686;10.094;2022-07-23T00:39:13;4.05;;;0.90;;
19127;SDS011;9696;53.686;10.094;2022-07-23T00:41:41;2.70;;;1.00;;
19127;SDS011;9696;53.686;10.094;2022-07-23T00:44:16;3.03;;;1.20;;
19127;SDS011;9696;53.686;10.094;2022-07-23T00:46:46;5.30;;;0.93;;
19127;SDS011;9696;53.686;10.094;2022-07-23T00:49:16;6.00;;;1.10;;
19127;SDS011;9696;53.686;10.094;2022-07-23T00:51:45;2.40;;;1.00;;
19127;SDS011;9696;53.686;10.094;2022-07-23T00:54:14;3.55;;;0.80;;
19127;SDS011;9696;53.686;10.094;2022-07-23T00:56:43;3.83;;;0.63;;
19127;SDS011;9696;53.686;10.094;2022-07-23T00:59:12;5.10;;;0.82;;
19127;SDS011;9696;53.686;10.094;2022-07-23T01:01:41;1.20;;;0.68;;
19127;SDS011;9696;53.686;10.094;2022-07-23T01:04:10;1.13;;;0.70;;
19127;SDS011;9696;53.686;10.094;2022-07-23T01:06:38;1.52;;;0.80;;
19127;SDS011;9696;53.686;10.094;2022-07-23T01:09:08;4.72;;;0.80;;
19127;SDS011;9696;53.686;10.094;2022-07-23T01:11:36;8.15;;;0.73;;
19127;SDS011;9696;53.686;10.094;2022-07-23T01:14:09;1.73;;;0.60;;
19127;SDS011;9696;53.686;10.094;2022-07-23T01:16:39;2.65;;;0.80;;
19127;SDS011;9696;53.686;10.094;2022-07-23T01:19:07;1.92;;;0.63;;
19127;SDS011;9696;53.686;10.094;2022-07-23T01:21:37;2.08;;;0.75;;
19127;SDS011;9696;53.686;10.094;2022-07-23T01:24:08;2.63;;;0.82;;
19127;SDS011;9696;53.686;10.094;2022-07-23T01:26:38;13.75;;;1.15;;
19127;SDS011;9696;53.686;10.094;2022-07-23T01:29:08;2.67;;;0.77;;
19127;SDS011;9696;53.686;10.094;2022-07-23T01:31:36;1.77;;;0.90;;
19127;SDS011;9696;53.686;10.094;2022-07-23T01:34:05;8.50;;;0.70;;
19127;SDS011;9696;53.686;10.094;2022-07-23T01:36:34;3.30;;;1.07;;
19127;SDS011;9696;53.686;10.094;2022-07-23T01:39:03;0.87;;;0.70;;
19127;SDS011;9696;53.686;10.094;2022-07-23T01:41:34;4.80;;;0.97;;
19127;SDS011;9696;53.686;10.094;2022-07-23T01:44:02;5.10;;;1.07;;
19127;SDS011;9696;53.686;10.094;2022-07-23T01:46:31;4.03;;;0.97;;
19127;SDS011;9696;53.686;10.094;2022-07-23T01:48:59;6.07;;;1.00;;
19127;SDS011;9696;53.686;10.094;2022-07-23T01:51:28;8.07;;;0.85;;
19127;SDS011;9696;53.686;10.094;2022-07-23T01:53:57;4.17;;;0.90;;
19127;SDS011;9696;53.686;10.094;2022-07-23T01:56:25;2.20;;;0.70;;
19127;SDS011;9696;53.686;10.094;2022-07-23T01:58:55;3.90;;;1.00;;
19127;SDS011;9696;53.686;10.094;2022-07-23T02:01:24;3.07;;;0.97;;
19127;SDS011;9696;53.686;10.094;2022-07-23T02:03:52;4.70;;;0.80;;
19127;SDS011;9696;53.686;10.094;2022-07-23T02:06:21;2.27;;;0.80;;
19127;SDS011;9696;53.686;10.094;2022-07-23T02:08:49;3.00;;;1.20;;
19127;SDS011;9696;53.686;10.094;2022-07-23T02:11:17;1.30;;;0.87;;
19127;SDS011;9696;53.686;10.094;2022-07-23T02:13:46;3.60;;;1.20;;
19127;SDS011;9696;53.686;10.094;2022-07-23T02:16:16;0.67;;;0.67;;
19127;SDS011;9696;53.686;10.094;2022-07-23T02:18:44;6.50;;;0.90;;
19127;SDS011;9696;53.686;10.094;2022-07-23T02:21:13;4.30;;;1.30;;
19127;SDS011;9696;53.686;10.094;2022-07-23T02:23:41;2.57;;;0.83;;
19127;SDS011;9696;53.686;10.094;2022-07-23T02:26:10;1.50;;;0.77;;
19127;SDS011;9696;53.686;10.094;2022-07-23T02:28:45;1.87;;;0.73;;
19127;SDS011;9696;53.686;10.094;2022-07-23T02:31:13;7.17;;;1.30;;
19127;SDS011;9696;53.686;10.094;2022-07-23T02:33:43;1.60;;;1.00;;
19127;SDS011;9696;53.686;10.094;2022-07-23T02:36:12;3.43;;;0.83;;
19127;SDS011;9696;53.686;10.094;2022-07-23T02:38:40;1.27;;;0.70;;
19127;SDS011;9696;53.686;10.094;2022-07-23T02:41:09;2.65;;;0.80;;
19127;SDS011;9696;53.686;10.094;2022-07-23T02:43:37;1.53;;;0.67;;
19127;SDS011;9696;53.686;10.094;2022-07-23T02:46:05;2.13;;;0.90;;
19127;SDS011;9696;53.686;10.094;2022-07-23T02:48:35;2.20;;;0.90;;
19127;SDS011;9696;53.686;10.094;2022-07-23T02:51:04;1.00;;;0.60;;
19127;SDS011;9696;53.686;10.094;2022-07-23T02:53:40;0.60;;;0.60;;
19127;SDS011;9696;53.686;10.094;2022-07-23T02:56:08;0.90;;;0.70;;
19127;SDS011;9696;53.686;10.094;2022-07-23T02:58:36;4.13;;;0.90;;
19127;SDS011;9696;53.686;10.094;2022-07-23T03:01:05;2.47;;;0.80;;
19127;SDS011;9696;53.686;10.094;2022-07-23T03:03:33;3.05;;;0.82;;
19127;SDS011;9696;53.686;10.094;2022-07-23T03:06:03;2.92;;;0.95;;
19127;SDS011;9696;53.686;10.094;2022-07-23T03:08:32;3.03;;;0.90;;
19127;SDS011;9696;53.686;10.094;2022-07-23T03:11:00;2.88;;;0.82;;
19127;SDS011;9696;53.686;10.094;2022-07-23T03:13:28;6.47;;;1.02;;
19127;SDS011;9696;53.686;10.094;2022-07-23T03:16:01;2.05;;;0.90;;
19127;SDS011;9696;53.686;10.094;2022-07-23T03:18:29;1.98;;;0.80;;
19127;SDS011;9696;53.686;10.094;2022-07-23T03:21:06;0.93;;;0.80;;
19127;SDS011;9696;53.686;10.094;2022-07-23T03:23:35;4.60;;;0.93;;
19127;SDS011;9696;53.686;10.094;2022-07-23T03:26:04;4.72;;;0.77;;
19127;SDS011;9696;53.686;10.094;2022-07-23T03:28:32;0.98;;;0.60;;
19127;SDS011;9696;53.686;10.094;2022-07-23T03:31:00;3.15;;;1.00;;
19127;SDS011;9696;53.686;10.094;2022-07-23T03:33:29;3.00;;;0.60;;
19127;SDS011;9696;53.686;10.094;2022-07-23T03:35:57;3.33;;;0.97;;
19127;SDS011;9696;53.686;10.094;2022-07-23T03:38:27;1.92;;;0.90;;
19127;SDS011;9696;53.686;10.094;2022-07-23T03:40:55;0.85;;;0.73;;
19127;SDS011;9696;53.686;10.094;2022-07-23T03:43:24;2.05;;;0.60;;
19127;SDS011;9696;53.686;10.094;2022-07-23T03:45:52;2.22;;;0.60;;
19127;SDS011;9696;53.686;10.094;2022-07-23T03:48:21;4.40;;;1.10;;
19127;SDS011;9696;53.686;10.094;2022-07-23T03:50:49;2.83;;;1.05;;
19127;SDS011;9696;53.686;10.094;2022-07-23T03:53:18;1.27;;;0.80;;
19127;SDS011;9696;53.686;10.094;2022-07-23T03:55:47;6.90;;;1.02;;
19127;SDS011;9696;53.686;10.094;2022-07-23T03:58:16;10.30;;;1.00;;
19127;SDS011;9696;53.686;10.094;2022-07-23T04:00:44;5.65;;;0.90;;
19127;SDS011;9696;53.686;10.094;2022-07-23T04:03:13;3.45;;;1.02;;
19127;SDS011;9696;53.686;10.094;2022-07-23T04:05:41;2.42;;;0.68;;
19127;SDS011;9696;53.686;10.094;2022-07-23T04:08:10;5.25;;;0.82;;
19127;SDS011;9696;53.686;10.094;2022-07-23T04:10:38;2.17;;;0.80;;
19127;SDS011;9696;53.686;10.094;2022-07-23T04:13:08;1.48;;;0.80;;
19127;SDS011;9696;53.686;10.094;2022-07-23T04:15:37;6.90;;;0.93;;
19127;SDS011;9696;53.686;10.094;2022-07-23T04:18:05;1.63;;;0.80;;
19127;SDS011;9696;53.686;10.094;2022-07-23T04:20:34;2.38;;;0.70;;
19127;SDS011;9696;53.686;10.094;2022-07-23T04:23:06;4.67;;;0.70;;
19127;SDS011;9696;53.686;10.094;2022-07-23T04:25:35;6.03;;;1.00;;
19127;SDS011;9696;53.686;10.094;2022-07-23T04:28:04;4.45;;;0.95;;
19127;SDS011;9696;53.686;10.094;2022-07-23T04:30:34;2.70;;;1.10;;
19127;SDS011;9696;53.686;10.094;2022-07-23T04:33:02;1.27;;;0.70;;
19127;SDS011;9696;53.686;10.094;2022-07-23T04:35:32;2.03;;;0.68;;
19127;SDS011;9696;53.686;10.094;2022-07-23T04:38:01;3.97;;;0.70;;
19127;SDS011;9696;53.686;10.094;2022-07-23T04:40:31;8.95;;;1.10;;
19127;SDS011;9696;53.686;10.094;2022-07-23T04:43:00;2.75;;;0.65;;
19127;SDS011;9696;53.686;10.094;2022-07-23T04:45:28;2.17;;;0.50;;
19127;SDS011;9696;53.686;10.094;2022-07-23T04:47:58;3.95;;;0.60;;
19127;SDS011;9696;53.686;10.094;2022-07-23T04:50:27;3.40;;;0.65;;
19127;SDS011;9696;53.686;10.094;2022-07-23T04:52:55;1.58;;;0.70;;
19127;SDS011;9696;53.686;10.094;2022-07-23T04:55:24;3.80;;;0.77;;
19127;SDS011;9696;53.686;10.094;2022-07-23T04:57:52;3.85;;;0.70;;
19127;SDS011;9696;53.686;10.094;2022-07-23T05:00:20;3.15;;;0.50;;
19127;SDS011;9696;53.686;10.094;2022-07-23T05:02:49;3.88;;;0.70;;
19127;SDS011;9696;53.686;10.094;2022-07-23T05:05:19;4.00;;;0.70;;
19127;SDS011;9696;53.686;10.094;2022-07-23T05:07:48;1.50;;;0.70;;
19127;SDS011;9696;53.686;10.094;2022-07-23T05:10:16;4.90;;;1.00;;
19127;SDS011;9696;53.686;10.094;2022-07-23T05:12:44;0.80;;;0.80;;
19127;SDS011;9696;53.686;10.094;2022-07-23T05:15:13;1.25;;;0.80;;
19127;SDS011;9696;53.686;10.094;2022-07-23T05:17:41;8.07;;;0.70;;
19127;SDS011;9696;53.686;10.094;2022-07-23T05:20:10;3.88;;;0.98;;
19127;SDS011;9696;53.686;10.094;2022-07-23T05:22:40;2.13;;;0.70;;
19127;SDS011;9696;53.686;10.094;2022-07-23T05:25:09;6.13;;;0.90;;
19127;SDS011;9696;53.686;10.094;2022-07-23T05:27:37;1.80;;;0.77;;
19127;SDS011;9696;53.686;10.094;2022-07-23T05:30:06;1.50;;;0.63;;
19127;SDS011;9696;53.686;10.094;2022-07-23T05:32:35;0.98;;;0.80;;
19127;SDS011;9696;53.686;10.094;2022-07-23T05:35:04;1.00;;;0.60;;
19127;SDS011;9696;53.686;10.094;2022-07-23T05:37:33;3.90;;;0.80;;
19127;SDS011;9696;53.686;10.094;2022-07-23T05:40:04;2.25;;;0.68;;
19127;SDS011;9696;53.686;10.094;2022-07-23T05:42:34;3.70;;;0.70;;
19127;SDS011;9696;53.686;10.094;2022-07-23T05:45:03;1.83;;;0.68;;
19127;SDS011;9696;53.686;10.094;2022-07-23T05:47:38;6.60;;;0.80;;
19127;SDS011;9696;53.686;10.094;2022-07-23T05:50:08;2.13;;;0.60;;
19127;SDS011;9696;53.686;10.094;2022-07-23T05:52:37;4.57;;;0.50;;
19127;SDS011;9696;53.686;10.094;2022-07-23T05:55:08;8.10;;;0.63;;
19127;SDS011;9696;53.686;10.094;2022-07-23T05:57:39;1.40;;;0.40;;
19127;SDS011;9696;53.686;10.094;2022-07-23T06:00:08;0.93;;;0.40;;
19127;SDS011;9696;53.686;10.094;2022-07-23T06:02:38;2.97;;;0.38;;
19127;SDS011;9696;53.686;10.094;2022-07-23T06:05:07;2.05;;;0.60;;
19127;SDS011;9696;53.686;10.094;2022-07-23T06:07:36;0.95;;;0.50;;
19127;SDS011;9696;53.686;10.094;2022-07-23T06:10:04;1.10;;;0.40;;
19127;SDS011;9696;53.686;10.094;2022-07-23T06:12:35;0.82;;;0.43;;
19127;SDS011;9696;53.686;10.094;2022-07-23T06:15:04;1.52;;;0.50;;
19127;SDS011;9696;53.686;10.094;2022-07-23T06:17:36;3.25;;;0.40;;
19127;SDS011;9696;53.686;10.094;2022-07-23T06:20:06;1.35;;;0.40;;
19127;SDS011;9696;53.686;10.094;2022-07-23T06:22:35;8.68;;;0.60;;
19127;SDS011;9696;53.686;10.094;2022-07-23T06:25:04;1.48;;;0.45;;
19127;SDS011;9696;53.686;10.094;2022-07-23T06:27:45;1.58;;;0.50;;
19127;SDS011;9696;53.686;10.094;2022-07-23T06:30:14;2.50;;;1.00;;
19127;SDS011;9696;53.686;10.094;2022-07-23T06:32:44;1.98;;;0.80;;
19127;SDS011;9696;53.686;10.094;2022-07-23T06:35:12;2.40;;;0.50;;
19127;SDS011;9696;53.686;10.094;2022-07-23T06:37:41;2.75;;;0.47;;
19127;SDS011;9696;53.686;10.094;2022-07-23T06:40:12;1.13;;;0.45;;
19127;SDS011;9696;53.686;10.094;2022-07-23T06:42:40;1.77;;;0.50;;
19127;SDS011;9696;53.686;10.094;2022-07-23T06:45:10;1.35;;;0.52;;
19127;SDS011;9696;53.686;10.094;2022-07-23T06:47:39;2.55;;;0.75;;
19127;SDS011;9696;53.686;10.094;2022-07-23T06:50:08;1.00;;;0.50;;
19127;SDS011;9696;53.686;10.094;2022-07-23T06:52:36;1.13;;;0.40;;
19127;SDS011;9696;53.686;10.094;2022-07-23T06:55:08;1.42;;;0.43;;
19127;SDS011;9696;53.686;10.094;2022-07-23T06:57:37;2.85;;;0.60;;
19127;SDS011;9696;53.686;10.094;2022-07-23T07:00:05;4.10;;;0.40;;
19127;SDS011;9696;53.686;10.094;2022-07-23T07:02:36;3.05;;;0.22;;
19127;SDS011;9696;53.686;10.094;2022-07-23T07:05:05;4.05;;;0.40;;
19127;SDS011;9696;53.686;10.094;2022-07-23T07:07:33;5.03;;;0.77;;
19127;SDS011;9696;53.686;10.094;2022-07-23T07:10:02;2.22;;;0.50;;
19127;SDS011;9696;53.686;10.094;2022-07-23T07:12:31;2.42;;;0.50;;
19127;SDS011;9696;53.686;10.094;2022-07-23T07:14:59;5.72;;;0.77;;
19127;SDS011;9696;53.686;10.094;2022-07-23T07:17:28;2.20;;;0.50;;
19127;SDS011;9696;53.686;10.094;2022-07-23T07:19:58;4.78;;;0.70;;
19127;SDS011;9696;53.686;10.094;2022-07-23T07:22:26;3.90;;;0.70;;
19127;SDS011;9696;53.686;10.094;2022-07-23T07:24:55;1.38;;;0.30;;
19127;SDS011;9696;53.686;10.094;2022-07-23T07:27:23;0.50;;;0.38;;
19127;SDS011;9696;53.686;10.094;2022-07-23T07:29:52;1.08;;;0.30;;
19127;SDS011;9696;53.686;10.094;2022-07-23T07:32:21;1.92;;;0.40;;
19127;SDS011;9696;53.686;10.094;2022-07-23T07:35:10;2.78;;;0.47;;
19127;SDS011;9696;53.686;10.094;2022-07-23T07:37:39;1.48;;;0.50;;
19127;SDS011;9696;53.686;10.094;2022-07-23T07:40:08;2.03;;;0.50;;
19127;SDS011;9696;53.686;10.094;2022-07-23T07:42:43;0.50;;;0.40;;
19127;SDS011;9696;53.686;10.094;2022-07-23T07:45:12;1.00;;;0.30;;
19127;SDS011;9696;53.686;10.094;2022-07-23T07:47:41;0.20;;;0.20;;
19127;SDS011;9696;53.686;10.094;2022-07-23T07:50:11;1.05;;;0.30;;
19127;SDS011;9696;53.686;10.094;2022-07-23T07:52:39;3.83;;;0.40;;
19127;SDS011;9696;53.686;10.094;2022-07-23T07:55:09;2.58;;;0.40;;
19127;SDS011;9696;53.686;10.094;2022-07-23T07:57:38;3.30;;;0.43;;
19127;SDS011;9696;53.686;10.094;2022-07-23T08:00:13;0.47;;;0.30;;
19127;SDS011;9696;53.686;10.094;2022-07-23T08:02:43;0.98;;;0.30;;
19127;SDS011;9696;53.686;10.094;2022-07-23T08:05:14;2.13;;;0.32;;
19127;SDS011;9696;53.686;10.094;2022-07-23T08:07:52;3.15;;;0.30;;
19127;SDS011;9696;53.686;10.094;2022-07-23T08:10:22;0.88;;;0.20;;
19127;SDS011;9696;53.686;10.094;2022-07-23T08:12:52;1.70;;;0.30;;
19127;SDS011;9696;53.686;10.094;2022-07-23T08:15:23;1.42;;;0.30;;
19127;SDS011;9696;53.686;10.094;2022-07-23T08:17:52;1.17;;;0.30;;
19127;SDS011;9696;53.686;10.094;2022-07-23T08:20:23;2.60;;;0.45;;
19127;SDS011;9696;53.686;10.094;2022-07-23T08:22:55;1.65;;;0.38;;
19127;SDS011;9696;53.686;10.094;2022-07-23T08:25:26;1.60;;;0.30;;
19127;SDS011;9696;53.686;10.094;2022-07-23T08:27:56;2.55;;;0.40;;
19127;SDS011;9696;53.686;10.094;2022-07-23T08:30:26;1.52;;;0.57;;
19127;SDS011;9696;53.686;10.094;2022-07-23T08:32:55;4.10;;;0.40;;
19127;SDS011;9696;53.686;10.094;2022-07-23T08:35:28;5.03;;;0.60;;
19127;SDS011;9696;53.686;10.094;2022-07-23T08:37:58;3.63;;;0.52;;
19127;SDS011;9696;53.686;10.094;2022-07-23T08:40:28;3.30;;;0.40;;
19127;SDS011;9696;53.686;10.094;2022-07-23T08:42:57;0.85;;;0.30;;
19127;SDS011;9696;53.686;10.094;2022-07-23T08:45:27;4.47;;;0.63;;
19127;SDS011;9696;53.686;10.094;2022-07-23T08:47:56;4.40;;;0.57;;
19127;SDS011;9696;53.686;10.094;2022-07-23T08:50:29;1.23;;;0.30;;
19127;SDS011;9696;53.686;10.094;2022-07-23T08:52:58;2.72;;;0.45;;
19127;SDS011;9696;53.686;10.094;2022-07-23T08:55:27;9.75;;;0.45;;
19127;SDS011;9696;53.686;10.094;2022-07-23T08:57:55;3.22;;;0.52;;
19127;SDS011;9696;53.686;10.094;2022-07-23T09:00:24;2.92;;;0.30;;
19127;SDS011;9696;53.686;10.094;2022-07-23T09:02:52;2.63;;;0.63;;
19127;SDS011;9696;53.686;10.094;2022-07-23T09:05:21;0.95;;;0.40;;
19127;SDS011;9696;53.686;10.094;2022-07-23T09:08:07;2.95;;;0.57;;
19127;SDS011;9696;53.686;10.094;2022-07-23T09:10:44;1.90;;;0.30;;
19127;SDS011;9696;53.686;10.094;2022-07-23T09:13:24;2.80;;;0.47;;
19127;SDS011;9696;53.686;10.094;2022-07-23T09:15:58;0.90;;;0.32;;
19127;SDS011;9696;53.686;10.094;2022-07-23T09:18:28;1.15;;;0.50;;
19127;SDS011;9696;53.686;10.094;2022-07-23T09:21:11;2.95;;;0.38;;
19127;SDS011;9696;53.686;10.094;2022-07-23T09:23:51;0.82;;;0.30;;
19127;SDS011;9696;53.686;10.094;2022-07-23T09:26:25;1.73;;;0.40;;
19127;SDS011;9696;53.686;10.094;2022-07-23T09:28:58;0.35;;;0.20;;
19127;SDS011;9696;53.686;10.094;2022-07-23T09:31:32;0.93;;;0.40;;
19127;SDS011;9696;53.686;10.094;2022-07-23T09:34:09;0.52;;;0.30;;
19127;SDS011;9696;53.686;10.094;2022-07-23T09:36:39;0.73;;;0.30;;
19127;SDS011;9696;53.686;10.094;2022-07-23T09:39:09;2.42;;;0.55;;
19127;SDS011;9696;53.686;10.094;2022-07-23T09:41:40;0.47;;;0.30;;
19127;SDS011;9696;53.686;10.094;2022-07-23T09:44:11;5.10;;;0.47;;
19127;SDS011;9696;53.686;10.094;2022-07-23T09:46:40;0.80;;;0.47;;
19127;SDS011;9696;53.686;10.094;2022-07-23T09:49:10;3.13;;;0.35;;
19127;SDS011;9696;53.686;10.094;2022-07-23T09:51:43;0.13;;;0.13;;
19127;SDS011;9696;53.686;10.094;2022-07-23T09:54:25;7.43;;;0.55;;
19127;SDS011;9696;53.686;10.094;2022-07-23T09:56:58;2.70;;;0.57;;
19127;SDS011;9696;53.686;10.094;2022-07-23T09:59:28;0.88;;;0.40;;
19127;SDS011;9696;53.686;10.094;2022-07-23T10:01:59;0.45;;;0.20;;
19127;SDS011;9696;53.686;10.094;2022-07-23T10:04:29;1.30;;;0.30;;
19127;SDS011;9696;53.686;10.094;2022-07-23T10:06:58;0.80;;;0.20;;
19127;SDS011;9696;53.686;10.094;2022-07-23T10:09:29;0.20;;;0.20;;
19127;SDS011;9696;53.686;10.094;2022-07-23T10:11:59;0.20;;;0.20;;
19127;SDS011;9696;53.686;10.094;2022-07-23T10:14:36;1.33;;;0.20;;
19127;SDS011;9696;53.686;10.094;2022-07-23T10:17:06;4.00;;;0.38;;
19127;SDS011;9696;53.686;10.094;2022-07-23T10:19:35;3.05;;;0.40;;
19127;SDS011;9696;53.686;10.094;2022-07-23T10:22:05;0.20;;;0.20;;
19127;SDS011;9696;53.686;10.094;2022-07-23T10:24:41;1.90;;;0.47;;
19127;SDS011;9696;53.686;10.094;2022-07-23T10:27:20;0.20;;;0.10;;
19127;SDS011;9696;53.686;10.094;2022-07-23T10:30:02;0.55;;;0.20;;
19127;SDS011;9696;53.686;10.094;2022-07-23T10:32:36;1.42;;;0.32;;
19127;SDS011;9696;53.686;10.094;2022-07-23T10:35:12;0.22;;;0.22;;
19127;SDS011;9696;53.686;10.094;2022-07-23T10:37:45;0.90;;;0.40;;
19127;SDS011;9696;53.686;10.094;2022-07-23T10:40:19;0.20;;;0.20;;
19127;SDS011;9696;53.686;10.094;2022-07-23T10:42:49;0.93;;;0.40;;
19127;SDS011;9696;53.686;10.094;2022-07-23T10:45:25;2.72;;;0.40;;
19127;SDS011;9696;53.686;10.094;2022-07-23T10:48:11;3.03;;;0.57;;
19127;SDS011;9696;53.686;10.094;2022-07-23T10:50:41;2.58;;;0.70;;
19127;SDS011;9696;53.686;10.094;2022-07-23T10:53:12;2.63;;;0.73;;
19127;SDS011;9696;53.686;10.094;2022-07-23T10:55:49;0.45;;;0.22;;
19127;SDS011;9696;53.686;10.094;2022-07-23T10:58:22;1.95;;;0.43;;
19127;SDS011;9696;53.686;10.094;2022-07-23T11:03:59;1.77;;;0.20;;
19127;SDS011;9696;53.686;10.094;2022-07-23T11:09:38;1.38;;;0.15;;
19127;SDS011;9696;53.686;10.094;2022-07-23T11:15:04;0.35;;;0.30;;
19127;SDS011;9696;53.686;10.094;2022-07-23T11:17:34;2.00;;;0.30;;
19127;SDS011;9696;53.686;10.094;2022-07-23T11:20:16;1.30;;;0.30;;
19127;SDS011;9696;53.686;10.094;2022-07-23T11:22:47;0.75;;;0.30;;
19127;SDS011;9696;53.686;10.094;2022-07-23T11:25:30;2.88;;;0.45;;
19127;SDS011;9696;53.686;10.094;2022-07-23T11:30:54;0.82;;;0.30;;
19127;SDS011;9696;53.686;10.094;2022-07-23T11:33:23;2.08;;;0.25;;
19127;SDS011;9696;53.686;10.094;2022-07-23T11:36:01;1.08;;;0.30;;
19127;SDS011;9696;53.686;10.094;2022-07-23T11:38:30;6.18;;;0.40;;
19127;SDS011;9696;53.686;10.094;2022-07-23T11:41:00;5.85;;;0.63;;
19127;SDS011;9696;53.686;10.094;2022-07-23T11:43:29;0.80;;;0.45;;
19127;SDS011;9696;53.686;10.094;2022-07-23T11:45:58;1.55;;;0.30;;
19127;SDS011;9696;53.686;10.094;2022-07-23T11:48:28;0.85;;;0.40;;
19127;SDS011;9696;53.686;10.094;2022-07-23T11:51:06;0.38;;;0.25;;
19127;SDS011;9696;53.686;10.094;2022-07-23T11:53:34;3.80;;;0.68;;
19127;SDS011;9696;53.686;10.094;2022-07-23T11:56:04;1.15;;;0.35;;
19127;SDS011;9696;53.686;10.094;2022-07-23T11:58:34;0.32;;;0.20;;
19127;SDS011;9696;53.686;10.094;2022-07-23T12:01:02;3.28;;;0.35;;
19127;SDS011;9696;53.686;10.094;2022-07-23T12:03:31;0.60;;;0.17;;
19127;SDS011;9696;53.686;10.094;2022-07-23T12:06:00;0.95;;;0.20;;
19127;SDS011;9696;53.686;10.094;2022-07-23T12:08:29;2.35;;;0.30;;
19127;SDS011;9696;53.686;10.094;2022-07-23T12:10:58;1.70;;;0.30;;
19127;SDS011;9696;53.686;10.094;2022-07-23T12:13:26;4.32;;;0.35;;
19127;SDS011;9696;53.686;10.094;2022-07-23T12:15:56;3.63;;;0.20;;
19127;SDS011;9696;53.686;10.094;2022-07-23T12:18:26;3.95;;;0.40;;
19127;SDS011;9696;53.686;10.094;2022-07-23T12:20:55;1.35;;;0.20;;
19127;SDS011;9696;53.686;10.094;2022-07-23T12:23:25;4.00;;;0.22;;
19127;SDS011;9696;53.686;10.094;2022-07-23T12:25:54;1.23;;;0.40;;
19127;SDS011;9696;53.686;10.094;2022-07-23T12:28:27;6.82;;;0.50;;
19127;SDS011;9696;53.686;10.094;2022-07-23T12:30:58;3.15;;;0.43;;
19127;SDS011;9696;53.686;10.094;2022-07-23T12:33:28;3.65;;;0.30;;
19127;SDS011;9696;53.686;10.094;2022-07-23T12:35:57;0.22;;;0.22;;
19127;SDS011;9696;53.686;10.094;2022-07-23T12:38:28;3.97;;;0.38;;
19127;SDS011;9696;53.686;10.094;2022-07-23T12:41:04;0.60;;;0.28;;
19127;SDS011;9696;53.686;10.094;2022-07-23T12:43:33;1.27;;;0.20;;
19127;SDS011;9696;53.686;10.094;2022-07-23T12:46:05;0.45;;;0.20;;
19127;SDS011;9696;53.686;10.094;2022-07-23T12:48:35;2.15;;;0.28;;
19127;SDS011;9696;53.686;10.094;2022-07-23T12:51:05;2.70;;;0.20;;
19127;SDS011;9696;53.686;10.094;2022-07-23T12:53:37;1.00;;;0.30;;
19127;SDS011;9696;53.686;10.094;2022-07-23T12:56:07;0.52;;;0.30;;
19127;SDS011;9696;53.686;10.094;2022-07-23T12:58:42;0.52;;;0.20;;
19127;SDS011;9696;53.686;10.094;2022-07-23T13:01:25;2.92;;;0.30;;
19127;SDS011;9696;53.686;10.094;2022-07-23T13:03:55;0.25;;;0.10;;
19127;SDS011;9696;53.686;10.094;2022-07-23T13:06:25;1.55;;;0.20;;
19127;SDS011;9696;53.686;10.094;2022-07-23T13:08:54;2.83;;;0.50;;
19127;SDS011;9696;53.686;10.094;2022-07-23T13:11:23;0.65;;;0.20;;
19127;SDS011;9696;53.686;10.094;2022-07-23T13:13:52;3.40;;;0.30;;
19127;SDS011;9696;53.686;10.094;2022-07-23T13:16:20;0.15;;;0.15;;
19127;SDS011;9696;53.686;10.094;2022-07-23T13:18:54;1.70;;;0.30;;
19127;SDS011;9696;53.686;10.094;2022-07-23T13:21:43;1.58;;;0.30;;
19127;SDS011;9696;53.686;10.094;2022-07-23T13:24:12;0.20;;;0.20;;
19127;SDS011;9696;53.686;10.094;2022-07-23T13:26:41;0.63;;;0.30;;
19127;SDS011;9696;53.686;10.094;2022-07-23T13:29:13;1.02;;;0.30;;
19127;SDS011;9696;53.686;10.094;2022-07-23T13:31:42;0.10;;;0.10;;
19127;SDS011;9696;53.686;10.094;2022-07-23T13:34:12;0.77;;;0.20;;
19127;SDS011;9696;53.686;10.094;2022-07-23T13:36:41;1.58;;;0.20;;
19127;SDS011;9696;53.686;10.094;2022-07-23T13:39:10;0.65;;;0.30;;
19127;SDS011;9696;53.686;10.094;2022-07-23T13:41:38;1.90;;;0.50;;
19127;SDS011;9696;53.686;10.094;2022-07-23T13:44:16;9.30;;;0.63;;
19127;SDS011;9696;53.686;10.094;2022-07-23T13:46:48;2.92;;;0.50;;
19127;SDS011;9696;53.686;10.094;2022-07-23T13:49:18;1.08;;;0.40;;
19127;SDS011;9696;53.686;10.094;2022-07-23T13:51:47;2.70;;;0.40;;
19127;SDS011;9696;53.686;10.094;2022-07-23T13:54:16;1.35;;;0.50;;
19127;SDS011;9696;53.686;10.094;2022-07-23T13:56:44;5.90;;;0.47;;
19127;SDS011;9696;53.686;10.094;2022-07-23T13:59:13;4.25;;;0.60;;
19127;SDS011;9696;53.686;10.094;2022-07-23T14:01:43;7.32;;;0.57;;
19127;SDS011;9696;53.686;10.094;2022-07-23T14:04:33;0.75;;;0.40;;
19127;SDS011;9696;53.686;10.094;2022-07-23T14:07:02;4.47;;;0.60;;
19127;SDS011;9696;53.686;10.094;2022-07-23T14:09:31;4.53;;;0.57;;
19127;SDS011;9696;53.686;10.094;2022-07-23T14:12:00;0.77;;;0.28;;
19127;SDS011;9696;53.686;10.094;2022-07-23T14:14:29;1.08;;;0.28;;
19127;SDS011;9696;53.686;10.094;2022-07-23T14:16:57;0.47;;;0.15;;
19127;SDS011;9696;53.686;10.094;2022-07-23T14:19:27;0.45;;;0.20;;
19127;SDS011;9696;53.686;10.094;2022-07-23T14:21:57;2.20;;;0.32;;
19127;SDS011;9696;53.686;10.094;2022-07-23T14:24:26;0.57;;;0.30;;
19127;SDS011;9696;53.686;10.094;2022-07-23T14:26:59;1.85;;;0.30;;
19127;SDS011;9696;53.686;10.094;2022-07-23T14:29:28;3.50;;;0.47;;
19127;SDS011;9696;53.686;10.094;2022-07-23T14:31:57;1.33;;;0.20;;
19127;SDS011;9696;53.686;10.094;2022-07-23T14:34:27;4.22;;;0.68;;
19127;SDS011;9696;53.686;10.094;2022-07-23T14:36:55;1.80;;;0.38;;
19127;SDS011;9696;53.686;10.094;2022-07-23T14:39:26;2.20;;;0.40;;
19127;SDS011;9696;53.686;10.094;2022-07-23T14:41:55;1.33;;;0.50;;
19127;SDS011;9696;53.686;10.094;2022-07-23T14:44:24;3.08;;;0.43;;
19127;SDS011;9696;53.686;10.094;2022-07-23T14:46:53;1.90;;;0.30;;
19127;SDS011;9696;53.686;10.094;2022-07-23T14:49:22;1.35;;;0.30;;
19127;SDS011;9696;53.686;10.094;2022-07-23T14:51:53;0.63;;;0.30;;
19127;SDS011;9696;53.686;10.094;2022-07-23T14:54:23;0.30;;;0.28;;
19127;SDS011;9696;53.686;10.094;2022-07-23T14:56:53;4.28;;;0.50;;
19127;SDS011;9696;53.686;10.094;2022-07-23T14:59:22;1.70;;;0.30;;
19127;SDS011;9696;53.686;10.094;2022-07-23T15:01:51;0.43;;;0.30;;
19127;SDS011;9696;53.686;10.094;2022-07-23T15:04:22;2.90;;;0.40;;
19127;SDS011;9696;53.686;10.094;2022-07-23T15:07:02;1.05;;;0.22;;
19127;SDS011;9696;53.686;10.094;2022-07-23T15:09:32;2.15;;;0.57;;
19127;SDS011;9696;53.686;10.094;2022-07-23T15:12:01;0.63;;;0.20;;
19127;SDS011;9696;53.686;10.094;2022-07-23T15:14:33;1.13;;;0.32;;
19127;SDS011;9696;53.686;10.094;2022-07-23T15:17:01;2.15;;;0.50;;
19127;SDS011;9696;53.686;10.094;2022-07-23T15:19:29;2.00;;;0.50;;